Time;durP1;ratioP1;P1;durP2;ratioP2;P2;SDS_P1;SDS_P2;PMS_P1;PMS_P2;Temp;Humidity;BMP_temperature;BMP_pressure;BME280_temperature;BME280_humidity;BME280_pressure;Samples;Min_cycle;Max_cycle;Signal;HPM_P1;HPM_P2
2021/10/15 00:00:27;;;;;;;10.93;4.77;;;3.20;99.90;;;;;;5141583;27;20601;-82
2021/10/15 00:02:55;;;;;;;9.90;5.00;;;3.20;99.90;;;;;;5142889;27;20175;-82
2021/10/15 00:05:21;;;;;;;9.27;4.40;;;;;;;;;;5143852;27;20675;-83
2021/10/15 00:07:47;;;;;;;5.87;4.03;;;;;;;;;;5142566;27;20416;-83
2021/10/15 00:10:13;;;;;;;5.77;3.83;;;;;;;;;;5141531;27;20426;-83
2021/10/15 00:12:39;;;;;;;3.83;3.13;;;;;;;;;;5140488;27;20412;-83
2021/10/15 00:15:05;;;;;;;6.53;3.70;;;;;;;;;;5142548;27;20230;-83
2021/10/15 00:17:31;;;;;;;4.30;3.70;;;;;;;;;;5148931;27;20925;-83
2021/10/15 00:19:57;;;;;;;5.10;4.10;;;3.20;99.90;;;;;;5149185;27;20459;-83
2021/10/15 00:22:23;;;;;;;3.93;3.37;;;;;;;;;;5147988;27;20179;-83
2021/10/15 00:24:48;;;;;;;4.50;3.37;;;3.20;99.90;;;;;;5148243;27;20181;-82
2021/10/15 00:27:14;;;;;;;4.27;3.43;;;;;;;;;;5149010;27;20182;-83
2021/10/15 00:29:40;;;;;;;6.07;3.63;;;;;;;;;;5149280;27;20556;-83
2021/10/15 00:32:06;;;;;;;3.70;2.80;;;;;;;;;;5147424;27;20611;-83
2021/10/15 00:34:32;;;;;;;5.83;3.87;;;;;;;;;;5147318;27;20404;-83
2021/10/15 00:36:59;;;;;;;4.93;3.50;;;;;;;;;;5147604;27;20416;-82
2021/10/15 00:39:25;;;;;;;4.37;3.40;;;;;;;;;;5149129;27;20826;-82
2021/10/15 00:41:51;;;;;;;5.70;3.77;;;;;;;;;;5147480;27;20412;-83
2021/10/15 00:44:16;;;;;;;6.03;4.13;;;3.20;99.90;;;;;;5147230;27;20175;-82
2021/10/15 00:46:43;;;;;;;4.27;3.70;;;3.30;99.90;;;;;;5147114;27;20167;-83
2021/10/15 00:49:11;;;;;;;5.70;3.70;;;3.10;99.90;;;;;;5147788;27;20230;-83
2021/10/15 00:51:38;;;;;;;4.07;3.67;;;;;;;;;;5147995;27;20444;-83
2021/10/15 00:54:04;;;;;;;4.90;3.33;;;3.10;99.90;;;;;;5149058;27;20393;-83
2021/10/15 00:56:32;;;;;;;5.80;3.90;;;3.10;99.90;;;;;;5148008;27;20503;-83
2021/10/15 00:59:00;;;;;;;9.30;4.67;;;3.10;99.90;;;;;;5148911;27;20460;-83
2021/10/15 01:01:26;;;;;;;3.97;3.57;;;;;;;;;;5150448;27;20480;-82
2021/10/15 01:03:53;;;;;;;3.83;3.37;;;;;;;;;;5152366;27;20458;-83
2021/10/15 01:06:19;;;;;;;4.07;3.67;;;3.10;99.90;;;;;;5152232;27;20409;-82
2021/10/15 01:08:47;;;;;;;4.40;3.97;;;3.00;99.90;;;;;;5152256;27;20464;-82
2021/10/15 01:11:14;;;;;;;3.83;3.33;;;3.10;99.90;;;;;;5147895;27;20183;-83
2021/10/15 01:13:40;;;;;;;5.07;3.63;;;;;;;;;;5146226;27;20894;-82
2021/10/15 01:16:09;;;;;;;4.43;3.30;;;3.00;99.90;;;;;;5146643;27;20870;-82
2021/10/15 01:18:35;;;;;;;3.73;3.27;;;;;;;;;;5145644;27;20542;-82
2021/10/15 01:21:01;;;;;;;6.43;3.43;;;;;;;;;;5146928;27;20438;-82
2021/10/15 01:23:27;;;;;;;4.70;3.50;;;;;;;;;;5145196;27;20436;-82
2021/10/15 01:25:54;;;;;;;5.33;3.23;;;;;;;;;;5146663;27;20400;-82
2021/10/15 01:28:21;;;;;;;3.77;2.97;;;2.90;99.90;;;;;;5147159;27;20175;-82
2021/10/15 01:30:47;;;;;;;5.87;3.20;;;;;;;;;;5145710;27;20432;-82
2021/10/15 01:33:13;;;;;;;4.60;3.27;;;;;;;;;;5145698;27;20436;-82
2021/10/15 01:35:39;;;;;;;3.97;3.30;;;;;;;;;;5145457;27;20417;-82
2021/10/15 01:38:05;;;;;;;3.60;3.10;;;;;;;;;;5146965;27;20459;-82
2021/10/15 01:40:32;;;;;;;5.50;3.47;;;;;;;;;;5145771;27;20441;-83
2021/10/15 01:42:58;;;;;;;6.10;3.30;;;;;;;;;;5144919;27;20491;-83
2021/10/15 01:45:25;;;;;;;4.17;3.30;;;2.80;99.90;;;;;;5145116;27;20974;-83
2021/10/15 01:47:51;;;;;;;3.30;3.00;;;;;;;;;;5145663;27;20517;-83
2021/10/15 01:50:17;;;;;;;3.20;2.90;;;;;;;;;;5145364;27;20438;-82
2021/10/15 01:52:43;;;;;;;3.30;3.00;;;;;;;;;;5145217;27;20946;-83
2021/10/15 01:55:10;;;;;;;3.53;2.80;;;2.90;99.90;;;;;;5145238;27;20906;-83
2021/10/15 01:57:36;;;;;;;2.87;2.57;;;;;;;;;;5145040;27;20455;-82
2021/10/15 02:00:04;;;;;;;3.13;2.70;;;2.90;99.90;;;;;;5146502;27;20788;-83
2021/10/15 02:02:30;;;;;;;3.50;2.80;;;;;;;;;;5146668;27;20401;-82
2021/10/15 02:04:57;;;;;;;3.17;2.87;;;;;;;;;;5145117;27;20426;-82
2021/10/15 02:07:23;;;;;;;5.20;3.00;;;;;;;;;;5145111;27;20420;-82
2021/10/15 02:09:49;;;;;;;4.57;3.00;;;;;;;;;;5144816;27;20487;-82
2021/10/15 02:12:14;;;;;;;3.53;2.93;;;2.90;99.90;;;;;;5146134;27;20455;-82
2021/10/15 02:14:40;;;;;;;3.17;2.80;;;;;;;;;;5145571;27;20178;-82
2021/10/15 02:17:06;;;;;;;3.83;3.03;;;;;;;;;;5144927;27;20543;-83
2021/10/15 02:19:32;;;;;;;4.13;3.03;;;2.80;99.90;;;;;;5146572;27;20428;-82
2021/10/15 02:21:59;;;;;;;4.23;2.90;;;3.00;99.90;;;;;;5146800;27;20182;-83
2021/10/15 02:24:25;;;;;;;3.73;2.93;;;;;;;;;;5146200;27;20241;-82
2021/10/15 02:26:50;;;;;;;3.20;2.90;;;2.80;99.90;;;;;;5145397;27;20404;-82
2021/10/15 02:29:16;;;;;;;6.30;4.10;;;2.80;99.90;;;;;;5144300;27;20203;-82
2021/10/15 02:31:42;;;;;;;8.20;5.93;;;;;;;;;;5144417;27;20756;-83
2021/10/15 02:34:09;;;;;;;12.50;6.37;;;2.80;99.90;;;;;;5145800;27;20190;-82
2021/10/15 02:36:35;;;;;;;24.23;12.20;;;2.80;99.90;;;;;;5144921;27;20412;-83
2021/10/15 02:39:00;;;;;;;13.03;7.97;;;2.80;99.90;;;;;;5144218;27;20504;-82
2021/10/15 02:41:26;;;;;;;19.70;10.83;;;2.80;99.90;;;;;;5145393;27;20175;-83
2021/10/15 02:43:52;;;;;;;10.50;6.53;;;2.60;99.90;;;;;;5144198;27;20263;-82
2021/10/15 02:46:18;;;;;;;15.63;8.63;;;2.70;99.90;;;;;;5146679;27;20627;-82
2021/10/15 02:48:44;;;;;;;13.77;8.63;;;2.70;99.90;;;;;;5145615;27;20194;-82
2021/10/15 02:51:11;;;;;;;11.10;6.60;;;2.60;99.90;;;;;;5145022;27;20223;-82
2021/10/15 02:53:38;;;;;;;10.27;7.10;;;;;;;;;;5145936;27;20534;-82
2021/10/15 02:56:04;;;;;;;8.10;6.33;;;;;;;;;;5144301;27;20413;-82
2021/10/15 02:58:30;;;;;;;7.33;4.60;;;;;;;;;;5143979;27;20489;-82
2021/10/15 03:00:57;;;;;;;5.67;4.80;;;;;;;;;;5146188;27;20788;-82
2021/10/15 03:03:22;;;;;;;3.90;3.50;;;2.50;99.90;;;;;;5146377;27;20409;-83
2021/10/15 03:05:48;;;;;;;5.43;3.57;;;;;;;;;;5147896;27;20421;-82
2021/10/15 03:08:14;;;;;;;5.13;3.00;;;2.40;99.90;;;;;;5146196;27;20632;-83
2021/10/15 03:10:40;;;;;;;3.83;3.10;;;2.40;99.90;;;;;;5145709;27;20216;-82
2021/10/15 03:13:06;;;;;;;4.90;3.03;;;;;;;;;;5149869;27;20210;-82
2021/10/15 03:15:32;;;;;;;3.97;3.03;;;;;;;;;;5139659;27;20175;-83
2021/10/15 03:17:58;;;;;;;3.40;3.00;;;;;;;;;;5135498;27;20444;-82
2021/10/15 03:20:24;;;;;;;4.13;2.80;;;2.20;99.90;;;;;;5135472;27;20432;-83
2021/10/15 03:22:50;;;;;;;3.00;2.70;;;;;;;;;;5136168;27;20625;-83
2021/10/15 03:25:16;;;;;;;3.80;2.93;;;;;;;;;;5146750;27;20212;-82
2021/10/15 03:27:42;;;;;;;3.07;2.70;;;;;;;;;;5147273;27;20427;-82
2021/10/15 03:30:08;;;;;;;3.20;2.60;;;2.10;99.90;;;;;;5147147;27;20432;-82
2021/10/15 03:32:34;;;;;;;3.20;2.77;;;2.20;99.90;;;;;;5144934;27;20198;-82
2021/10/15 03:35:00;;;;;;;3.07;2.77;;;;;;;;;;5142878;27;20768;-83
2021/10/15 03:37:27;;;;;;;4.50;3.00;;;;;;;;;;5144469;27;20198;-82
2021/10/15 03:39:53;;;;;;;3.37;2.53;;;;;;;;;;5144796;27;20439;-82
2021/10/15 03:42:19;;;;;;;3.33;2.90;;;;;;;;;;5143184;28;20476;-83
2021/10/15 03:44:45;;;;;;;3.00;2.53;;;;;;;;;;5143319;28;20401;-82
2021/10/15 03:47:11;;;;;;;3.00;2.20;;;;;;;;;;5143448;28;20420;-83
2021/10/15 03:49:37;;;;;;;3.43;2.47;;;;;;;;;;5143555;28;20888;-83
2021/10/15 03:52:04;;;;;;;2.60;2.10;;;1.70;99.90;;;;;;5144185;28;20567;-82
2021/10/15 03:54:30;;;;;;;3.63;2.27;;;;;;;;;;5143971;28;20479;-82
2021/10/15 03:56:56;;;;;;;2.77;2.20;;;2.20;99.90;;;;;;5143752;28;20416;-82
2021/10/15 03:59:21;;;;;;;2.60;2.40;;;2.20;99.90;;;;;;5145077;28;20221;-82
2021/10/15 04:01:47;;;;;;;2.80;2.27;;;;;;;;;;5143608;28;20284;-82
2021/10/15 04:04:13;;;;;;;4.60;2.40;;;;;;;;;;5145100;28;20300;-82
2021/10/15 04:06:39;;;;;;;2.33;2.13;;;;;;;;;;5144406;28;20760;-82
2021/10/15 04:09:05;;;;;;;3.33;2.40;;;;;;;;;;5144290;28;20451;-83
2021/10/15 04:11:31;;;;;;;2.70;2.50;;;2.10;99.90;;;;;;5144739;28;20412;-83
2021/10/15 04:13:58;;;;;;;2.93;2.30;;;2.10;99.90;;;;;;5145405;28;20409;-82
2021/10/15 04:16:25;;;;;;;4.53;2.77;;;2.10;99.90;;;;;;5144677;28;20182;-83
2021/10/15 04:18:51;;;;;;;4.23;2.33;;;;;;;;;;5144419;28;20492;-82
2021/10/15 04:21:17;;;;;;;3.03;2.27;;;;;;;;;;5145111;28;20408;-82
2021/10/15 04:23:43;;;;;;;3.13;2.40;;;;;;;;;;5144568;28;20408;-82
2021/10/15 04:26:09;;;;;;;4.20;2.60;;;1.90;99.90;;;;;;5148992;28;20866;-82
2021/10/15 04:28:35;;;;;;;2.50;2.13;;;1.70;99.90;;;;;;5149154;28;20425;-82
2021/10/15 04:31:01;;;;;;;4.40;3.03;;;;;;;;;;5148898;28;20179;-82
2021/10/15 04:33:27;;;;;;;3.90;3.07;;;;;;;;;;5147390;28;20198;-82
2021/10/15 04:35:53;;;;;;;3.50;2.30;;;;;;;;;;5141697;28;20479;-82
2021/10/15 04:38:19;;;;;;;2.37;2.17;;;;;;;;;;5143430;28;20456;-82
2021/10/15 04:40:45;;;;;;;2.73;2.20;;;;;;;;;;5144405;28;20480;-82
2021/10/15 04:43:11;;;;;;;3.27;2.20;;;;;;;;;;5142722;28;20412;-83
2021/10/15 04:45:37;;;;;;;3.07;2.80;;;;;;;;;;5143916;28;20405;-82
2021/10/15 04:48:03;;;;;;;3.60;2.57;;;1.80;99.90;;;;;;5146045;27;20405;-82
2021/10/15 04:50:30;;;;;;;3.50;2.77;;;;;;;;;;5147046;27;20435;-82
2021/10/15 04:52:56;;;;;;;3.00;2.67;;;;;;;;;;5146442;27;20436;-82
2021/10/15 04:55:23;;;;;;;2.43;2.20;;;;;;;;;;5146935;27;20423;-82
2021/10/15 04:57:49;;;;;;;2.50;2.23;;;;;;;;;;5147410;27;20838;-82
2021/10/15 05:00:18;;;;;;;2.57;2.13;;;1.90;99.90;;;;;;5148780;27;20487;-82
2021/10/15 05:02:44;;;;;;;2.90;2.50;;;;;;;;;;5148281;27;20409;-82
2021/10/15 05:05:12;;;;;;;2.73;2.13;;;;;;;;;;5147486;27;20503;-82
2021/10/15 05:07:40;;;;;;;2.43;2.03;;;;;;;;;;5147847;27;20431;-82
2021/10/15 05:10:06;;;;;;;6.50;2.70;;;1.70;99.90;;;;;;5147228;27;20436;-82
2021/10/15 05:12:32;;;;;;;3.83;2.20;;;;;;;;;;5147668;27;20507;-82
2021/10/15 05:14:58;;;;;;;7.57;2.53;;;;;;;;;;5150141;27;20428;-81
2021/10/15 05:17:24;;;;;;;2.83;2.20;;;;;;;;;;5160673;27;20400;-82
2021/10/15 05:19:50;;;;;;;2.70;2.30;;;;;;;;;;5160702;27;20420;-82
2021/10/15 05:22:16;;;;;;;2.53;2.13;;;;;;;;;;5156196;27;20445;-82
2021/10/15 05:24:42;;;;;;;5.00;2.20;;;;;;;;;;5146206;27;20893;-84
2021/10/15 05:27:08;;;;;;;2.63;2.33;;;;;;;;;;5147327;27;20469;-83
2021/10/15 05:29:34;;;;;;;2.10;1.90;;;;;;;;;;5146317;27;20428;-80
2021/10/15 05:32:00;;;;;;;3.30;2.33;;;;;;;;;;5148590;27;20440;-84
2021/10/15 05:34:26;;;;;;;4.80;2.30;;;;;;;;;;5144528;27;20468;-84
2021/10/15 05:36:52;;;;;;;2.30;2.10;;;1.70;99.90;;;;;;5143586;27;20531;-83
2021/10/15 05:39:18;;;;;;;2.53;2.30;;;;;;;;;;5138540;27;20211;-83
2021/10/15 05:41:45;;;;;;;2.53;2.03;;;1.50;99.90;;;;;;5143114;27;20175;-83
2021/10/15 05:44:11;;;;;;;2.87;2.23;;;;;;;;;;5145071;27;20554;-83
2021/10/15 05:46:36;;;;;;;2.73;1.93;;;1.60;99.90;;;;;;5145029;27;20444;-83
2021/10/15 05:49:07;;;;;;;2.47;1.93;;;;;;;;;;5145901;27;20293;-83
2021/10/15 05:51:36;;;;;;;4.23;2.30;;;;;;;;;;5146028;27;20174;-84
2021/10/15 05:54:03;;;;;;;3.03;2.10;;;;;;;;;;5141175;27;20421;-83
2021/10/15 05:59:04;;;;;;;4.83;2.30;;;1.90;99.90;;;;;;5143935;27;20459;-84
2021/10/15 06:01:30;;;;;;;3.33;2.17;;;;;;;;;;5143094;27;20412;-84
2021/10/15 06:14:33;;;;;;;5.80;2.13;;;;;;;;;;5146946;27;20419;-84
2021/10/15 06:17:06;;;;;;;2.23;1.87;;;2.10;99.90;;;;;;5146631;27;20441;-84
2021/10/15 06:19:41;;;;;;;3.27;2.07;;;;;;;;;;5150115;27;20493;-84
2021/10/15 06:22:08;;;;;;;3.60;2.60;;;;;;;;;;5151480;27;20411;-84
2021/10/15 06:24:34;;;;;;;6.83;3.83;;;;;;;;;;5147706;27;20819;-84
2021/10/15 06:27:00;;;;;;;7.87;4.23;;;;;;;;;;5138751;27;20465;-84
2021/10/15 06:29:25;;;;;;;9.17;5.80;;;2.10;99.90;;;;;;5135724;27;20441;-84
2021/10/15 06:31:51;;;;;;;5.57;3.37;;;;;;;;;;5139773;27;20179;-83
2021/10/15 06:34:18;;;;;;;5.63;2.77;;;2.20;99.90;;;;;;5142946;27;20193;-84
2021/10/15 06:36:45;;;;;;;11.73;4.37;;;;;;;;;;5143582;27;20266;-84
2021/10/15 06:39:11;;;;;;;10.17;4.17;;;2.30;99.90;;;;;;5142804;27;20464;-84
2021/10/15 06:41:37;;;;;;;6.73;4.47;;;;;;;;;;5145017;27;20413;-84
2021/10/15 06:44:03;;;;;;;4.93;3.77;;;;;;;;;;5144034;27;20866;-85
2021/10/15 06:46:29;;;;;;;9.20;5.67;;;;;;;;;;5140837;27;20465;-84
2021/10/15 06:48:55;;;;;;;8.43;5.57;;;;;;;;;;5143395;27;20431;-84
2021/10/15 06:51:21;;;;;;;5.70;3.60;;;2.90;99.90;;;;;;5141994;27;20404;-85
2021/10/15 06:53:47;;;;;;;5.50;3.97;;;;;;;;;;5142649;27;20171;-85
2021/10/15 06:56:13;;;;;;;6.50;2.80;;;;;;;;;;5142982;27;20179;-86
2021/10/15 06:58:39;;;;;;;6.70;4.50;;;3.20;99.90;;;;;;5142069;27;21022;-84
2021/10/15 07:01:05;;;;;;;5.47;3.83;;;3.20;99.90;;;;;;5143063;27;20224;-84
2021/10/15 07:03:30;;;;;;;5.60;4.03;;;3.20;99.90;;;;;;5143807;27;20170;-84
2021/10/15 07:05:56;;;;;;;5.93;3.00;;;;;;;;;;5144630;27;20174;-84
2021/10/15 07:08:24;;;;;;;3.97;2.40;;;;;;;;;;5145093;27;20234;-84
2021/10/15 07:10:50;;;;;;;12.13;5.23;;;;;;;;;;5144507;27;20403;-84
2021/10/15 07:13:16;;;;;;;4.83;3.80;;;;;;;;;;5144876;27;20400;-84
2021/10/15 07:15:45;;;;;;;3.53;2.60;;;3.60;99.90;;;;;;5143650;27;20495;-84
2021/10/15 07:18:11;;;;;;;3.03;2.57;;;3.50;99.90;;;;;;5143941;27;20206;-84
2021/10/15 07:20:37;;;;;;;2.70;2.17;;;3.80;99.90;;;;;;5144077;27;20428;-84
2021/10/15 07:23:03;;;;;;;3.30;2.20;;;;;;;;;;5151098;27;20419;-83
2021/10/15 07:25:30;;;;;;;2.47;1.63;;;;;;;;;;5156070;27;20189;-83
2021/10/15 07:27:56;;;;;;;3.10;1.70;;;;;;;;;;5154826;27;20408;-83
2021/10/15 07:30:21;;;;;;;2.77;2.33;;;4.40;99.90;;;;;;5144282;27;21068;-84
2021/10/15 07:32:52;;;;;;;3.83;2.73;;;4.50;99.90;;;;;;5141122;27;20534;-84
2021/10/15 07:35:18;;;;;;;3.33;2.03;;;;;;;;;;5141606;27;20174;-84
2021/10/15 07:37:44;;;;;;;2.33;2.03;;;4.90;99.90;;;;;;5141797;27;20474;-84
2021/10/15 07:40:10;;;;;;;4.30;2.17;;;5.20;99.90;;;;;;5141542;27;20432;-84
2021/10/15 07:42:36;;;;;;;3.63;2.10;;;;;;;;;;5143661;27;20170;-84
2021/10/15 07:45:03;;;;;;;4.77;2.20;;;5.70;99.90;;;;;;5143113;28;20401;-84
2021/10/15 07:47:29;;;;;;;5.77;2.07;;;6.40;99.90;;;;;;5143480;28;20538;-84
2021/10/15 07:49:55;;;;;;;2.33;1.70;;;7.00;99.90;;;;;;5144278;28;20424;-85
2021/10/15 07:52:21;;;;;;;5.53;2.47;;;;;;;;;;5143478;28;20581;-84
2021/10/15 07:54:46;;;;;;;2.50;2.00;;;6.90;99.90;;;;;;5144012;28;20190;-85
2021/10/15 07:57:13;;;;;;;3.07;1.80;;;6.90;99.90;;;;;;5148110;28;20388;-83
2021/10/15 07:59:39;;;;;;;2.87;1.83;;;7.20;99.90;;;;;;5141100;28;20211;-84
2021/10/15 08:02:05;;;;;;;1.70;1.60;;;7.40;99.90;;;;;;5141276;28;20412;-84
2021/10/15 08:04:31;;;;;;;3.90;1.47;;;7.80;99.90;;;;;;5140742;28;20416;-84
2021/10/15 08:06:56;;;;;;;3.10;1.50;;;8.00;99.90;;;;;;5142717;28;20220;-84
2021/10/15 08:09:22;;;;;;;1.60;1.10;;;8.70;99.90;;;;;;5141504;28;20668;-84
2021/10/15 08:11:48;;;;;;;3.63;1.63;;;9.60;99.90;;;;;;5140979;28;20175;-84
2021/10/15 08:14:14;;;;;;;2.93;1.30;;;9.80;99.90;;;;;;5141355;28;20184;-84
2021/10/15 08:16:40;;;;;;;1.73;1.30;;;9.80;99.90;;;;;;5141453;28;20270;-84
2021/10/15 08:19:06;;;;;;;2.30;1.00;;;9.90;99.90;;;;;;5140821;28;20257;-84
2021/10/15 08:21:32;;;;;;;1.27;1.00;;;10.10;99.90;;;;;;5142467;27;20180;-84
2021/10/15 08:23:57;;;;;;;1.97;1.20;;;10.90;99.90;;;;;;5145031;27;20170;-84
2021/10/15 08:26:24;;;;;;;4.40;0.90;;;11.50;99.90;;;;;;5145328;27;20182;-84
2021/10/15 08:28:53;;;;;;;2.47;1.00;;;11.60;99.90;;;;;;5145666;27;20195;-84
2021/10/15 08:31:18;;;;;;;1.73;1.40;;;11.30;99.90;;;;;;5145655;27;20200;-84
2021/10/15 08:33:44;;;;;;;2.13;1.80;;;10.60;99.90;;;;;;5148020;27;20182;-84
2021/10/15 08:36:10;;;;;;;1.20;1.00;;;10.30;99.90;;;;;;5146576;27;20194;-84
2021/10/15 08:38:35;;;;;;;3.00;1.40;;;10.10;99.90;;;;;;5145847;27;20222;-84
2021/10/15 08:41:01;;;;;;;2.67;1.30;;;10.00;99.90;;;;;;5144379;27;20174;-84
2021/10/15 08:43:38;;;;;;;2.67;1.10;;;10.00;99.90;;;;;;5146302;27;20534;-84
2021/10/15 08:46:05;;;;;;;1.37;1.23;;;9.80;99.90;;;;;;5144963;27;20170;-84
2021/10/15 08:48:31;;;;;;;2.30;1.30;;;9.70;99.90;;;;;;5144448;27;20174;-84
2021/10/15 08:50:57;;;;;;;2.30;1.60;;;10.00;99.90;;;;;;5144868;27;20236;-84
2021/10/15 08:53:24;;;;;;;3.93;1.70;;;10.50;99.90;;;;;;5143774;27;20201;-84
2021/10/15 08:55:49;;;;;;;3.07;1.47;;;11.50;99.90;;;;;;5144916;27;20166;-84
2021/10/15 08:58:15;;;;;;;3.03;1.87;;;12.50;99.90;;;;;;5143258;27;20207;-84
2021/10/15 09:00:41;;;;;;;1.70;1.40;;;13.60;99.90;;;;;;5143691;27;20372;-84
2021/10/15 09:03:14;;;;;;;7.67;2.03;;;14.50;99.90;;;;;;5143076;27;20183;-84
2021/10/15 09:05:41;;;;;;;2.90;1.60;;;15.10;99.90;;;;;;5147699;27;20171;-83
2021/10/15 09:08:07;;;;;;;3.80;1.77;;;14.80;99.90;;;;;;5147437;27;20202;-83
2021/10/15 09:10:34;;;;;;;2.30;1.43;;;14.20;99.90;;;;;;5146472;27;20653;-83
2021/10/15 09:13:15;;;;;;;3.10;2.13;;;14.00;99.90;;;;;;5148079;27;20176;-83
2021/10/15 09:15:41;;;;;;;3.50;1.57;;;14.30;99.90;;;;;;5146006;27;20193;-84
2021/10/15 09:18:12;;;;;;;4.03;2.03;;;14.30;99.90;;;;;;5146820;27;20205;-83
2021/10/15 09:20:38;;;;;;;2.60;1.90;;;14.40;99.90;;;;;;5145939;27;20204;-83
2021/10/15 09:23:04;;;;;;;3.83;1.93;;;15.00;99.90;;;;;;5147029;27;20175;-84
2021/10/15 09:25:36;;;;;;;2.17;1.97;;;15.90;99.90;;;;;;5146930;27;20173;-83
2021/10/15 09:28:10;;;;;;;3.70;2.70;;;16.50;99.90;;;;;;5144703;27;20205;-83
2021/10/15 09:30:40;;;;;;;2.73;2.30;;;16.10;99.90;;;;;;5136829;27;20198;-82
2021/10/15 09:33:07;;;;;;;14.47;12.73;;;15.20;99.90;;;;;;5142809;27;20217;-82
2021/10/15 09:35:33;;;;;;;15.03;11.03;;;14.50;99.90;;;;;;5147279;27;20200;-83
2021/10/15 09:38:05;;;;;;;34.40;25.27;;;14.60;99.90;;;;;;5143171;27;20197;-84
2021/10/15 09:40:42;;;;;;;12.37;8.03;;;14.80;99.90;;;;;;5145757;27;20191;-83
2021/10/15 09:43:10;;;;;;;13.30;8.30;;;14.70;99.90;;;;;;5143893;27;20182;-82
2021/10/15 09:45:42;;;;;;;33.83;21.83;;;14.60;99.90;;;;;;5143668;27;20179;-83
2021/10/15 09:48:26;;;;;;;9.90;5.93;;;14.90;99.90;;;;;;5143206;27;20175;-82
2021/10/15 09:51:10;;;;;;;19.43;13.10;;;15.60;99.90;;;;;;5142631;27;20193;-83
2021/10/15 09:53:37;;;;;;;24.97;15.50;;;15.70;99.90;;;;;;5142331;27;20198;-83
2021/10/15 09:56:03;;;;;;;4.47;3.80;;;15.50;99.90;;;;;;5142987;27;20269;-83
2021/10/15 09:58:28;;;;;;;5.83;3.20;;;15.50;99.90;;;;;;5142832;27;20233;-84
2021/10/15 10:00:55;;;;;;;10.30;5.83;;;15.60;99.90;;;;;;5146693;27;20179;-83
2021/10/15 10:03:26;;;;;;;8.23;5.90;;;15.90;99.90;;;;;;5146684;27;20171;-83
2021/10/15 10:05:52;;;;;;;9.67;6.73;;;16.20;99.60;;;;;;5147169;27;20255;-83
2021/10/15 10:08:18;;;;;;;6.40;4.77;;;16.40;99.90;;;;;;5146603;27;20179;-83
2021/10/15 10:10:45;;;;;;;10.77;7.20;;;16.00;99.90;;;;;;5145450;27;20204;-83
2021/10/15 10:13:13;;;;;;;5.23;4.73;;;16.20;99.90;;;;;;5146526;27;20264;-83
2021/10/15 10:15:42;;;;;;;4.97;3.97;;;16.30;98.40;;;;;;5147005;27;20182;-83
2021/10/15 10:18:27;;;;;;;3.60;3.10;;;16.60;98.90;;;;;;5146865;27;20199;-83
2021/10/15 10:21:05;;;;;;;5.80;4.10;;;17.20;99.90;;;;;;5145964;27;20211;-83
2021/10/15 10:23:47;;;;;;;12.63;8.63;;;17.40;98.20;;;;;;5147972;27;20238;-83
2021/10/15 10:26:20;;;;;;;15.20;13.57;;;17.70;96.70;;;;;;5145703;27;20170;-83
2021/10/15 10:28:59;;;;;;;5.23;4.20;;;17.90;97.90;;;;;;5143991;27;20203;-83
2021/10/15 10:31:25;;;;;;;8.40;7.60;;;18.30;97.90;;;;;;5145019;27;20207;-83
2021/10/15 10:34:06;;;;;;;7.47;6.77;;;18.60;95.70;;;;;;5146201;27;20187;-83
2021/10/15 10:36:37;;;;;;;8.77;8.00;;;19.30;95.20;;;;;;5146579;27;20173;-83
2021/10/15 10:39:18;;;;;;;8.17;6.63;;;19.50;93.40;;;;;;5144751;27;20212;-83
2021/10/15 10:42:03;;;;;;;3.50;3.20;;;19.20;92.40;;;;;;5146005;27;20201;-84
2021/10/15 10:44:29;;;;;;;4.63;3.03;;;19.40;94.00;;;;;;5144488;27;20205;-84
2021/10/15 10:47:16;;;;;;;2.40;2.20;;;19.60;93.50;;;;;;5144230;27;20187;-83
2021/10/15 10:50:01;;;;;;;2.77;2.30;;;19.40;92.20;;;;;;5146663;27;20569;-83
2021/10/15 10:52:27;;;;;;;2.47;2.27;;;19.30;90.70;;;;;;5145051;27;20190;-83
2021/10/15 10:54:53;;;;;;;2.60;2.40;;;19.30;91.40;;;;;;5144635;27;20242;-83
2021/10/15 10:57:24;;;;;;;4.27;3.87;;;19.30;90.50;;;;;;5144858;27;20535;-83
2021/10/15 10:59:51;;;;;;;5.43;3.20;;;19.30;89.80;;;;;;5144907;27;20213;-83
2021/10/15 11:02:20;;;;;;;4.10;3.70;;;19.40;90.70;;;;;;5146665;27;20304;-83
2021/10/15 11:04:51;;;;;;;3.73;2.00;;;19.90;90.60;;;;;;5145822;27;20304;-82
2021/10/15 11:07:17;;;;;;;4.43;3.77;;;20.10;87.20;;;;;;5145160;27;20171;-82
2021/10/15 11:09:47;;;;;;;3.07;2.40;;;20.40;86.80;;;;;;5146639;27;20262;-83
2021/10/15 11:12:28;;;;;;;3.67;2.53;;;19.90;86.20;;;;;;5146842;27;20183;-83
2021/10/15 11:15:04;;;;;;;2.47;1.80;;;20.00;85.10;;;;;;5146039;27;20204;-83
2021/10/15 11:17:36;;;;;;;4.23;2.03;;;19.90;85.90;;;;;;5145651;27;20179;-83
2021/10/15 11:20:35;;;;;;;2.33;1.83;;;19.60;85.50;;;;;;5146350;27;20212;-83
2021/10/15 11:23:07;;;;;;;4.37;2.03;;;20.10;89.40;;;;;;5145638;27;20190;-83
2021/10/15 11:25:38;;;;;;;2.23;2.03;;;20.50;90.00;;;;;;5146592;27;20185;-83
2021/10/15 11:28:10;;;;;;;3.53;2.60;;;20.60;84.70;;;;;;5147635;27;20181;-83
2021/10/15 11:30:39;;;;;;;9.67;6.40;;;20.50;83.80;;;;;;5149352;27;20198;-83
2021/10/15 11:33:09;;;;;;;2.33;2.13;;;20.80;83.60;;;;;;5146050;27;20206;-84
2021/10/15 11:35:37;;;;;;;9.70;6.77;;;20.60;81.70;;;;;;5147388;27;20179;-83
2021/10/15 11:38:18;;;;;;;2.73;2.50;;;21.10;83.20;;;;;;5145981;27;20202;-86
2021/10/15 11:40:47;;;;;;;12.00;8.93;;;21.70;82.10;;;;;;5146866;27;20187;-85
2021/10/15 11:43:26;;;;;;;4.37;2.97;;;21.90;76.10;;;;;;5145714;27;20182;-85
2021/10/15 11:46:08;;;;;;;7.83;6.50;;;21.70;79.30;;;;;;5145060;28;20173;-85
2021/10/15 11:48:42;;;;;;;6.03;4.90;;;22.20;76.40;;;;;;5145788;28;20177;-85
2021/10/15 11:51:13;;;;;;;2.27;2.00;;;22.60;80.50;;;;;;5146283;28;20663;-85
2021/10/15 11:53:45;;;;;;;3.23;1.70;;;22.40;77.20;;;;;;5145862;28;20178;-84
2021/10/15 11:56:14;;;;;;;1.73;1.33;;;22.30;72.00;;;;;;5146427;27;20173;-85
2021/10/15 11:58:45;;;;;;;1.67;1.57;;;21.90;73.00;;;;;;5150247;27;20344;-85
2021/10/15 12:01:19;;;;;;;1.93;1.73;;;21.60;72.10;;;;;;5150546;27;20268;-85
2021/10/15 12:03:52;;;;;;;1.70;1.60;;;21.70;70.50;;;;;;5150545;27;20166;-83
2021/10/15 12:06:25;;;;;;;2.40;1.60;;;21.80;69.00;;;;;;5150606;27;20614;-84
2021/10/15 12:08:56;;;;;;;3.07;1.70;;;21.80;71.10;;;;;;5149254;27;20239;-83
2021/10/15 12:11:44;;;;;;;1.77;1.20;;;21.90;69.80;;;;;;5148890;27;20188;-83
2021/10/15 12:14:26;;;;;;;1.63;1.40;;;21.90;70.30;;;;;;5148834;27;20190;-82
2021/10/15 12:16:56;;;;;;;1.50;1.40;;;22.30;74.80;;;;;;5148635;27;20195;-83
2021/10/15 12:19:44;;;;;;;1.23;1.13;;;23.00;71.20;;;;;;5148793;27;20232;-85
2021/10/15 12:22:18;;;;;;;2.43;1.50;;;23.10;69.20;;;;;;5134467;27;20218;-83
2021/10/15 12:24:46;;;;;;;2.03;1.20;;;22.90;70.00;;;;;;5146958;27;20198;-83
2021/10/15 12:27:15;;;;;;;1.20;1.10;;;23.10;70.00;;;;;;5145455;27;20266;-82
2021/10/15 12:29:59;;;;;;;1.30;1.20;;;22.70;66.40;;;;;;5142798;27;20293;-82
2021/10/15 12:32:35;;;;;;;2.40;1.33;;;20.80;65.40;;;;;;5138553;27;20186;-82
2021/10/15 12:35:13;;;;;;;1.57;1.47;;;19.80;67.50;;;;;;5137614;27;20242;-82
2021/10/15 12:37:54;;;;;;;1.77;1.40;;;18.80;74.00;;;;;;5144854;27;20160;-84
2021/10/15 12:40:42;;;;;;;3.00;2.63;;;18.50;75.50;;;;;;5148026;27;20192;-83
2021/10/15 12:43:18;;;;;;;8.10;5.50;;;20.40;79.00;;;;;;5147292;27;20200;-83
2021/10/15 12:45:50;;;;;;;14.87;8.00;;;21.20;66.30;;;;;;5148535;27;20629;-83
2021/10/15 12:48:17;;;;;;;5.40;3.50;;;21.80;66.40;;;;;;5148042;27;20211;-83
2021/10/15 12:50:55;;;;;;;19.63;15.77;;;22.90;67.70;;;;;;5147999;27;20199;-83
2021/10/15 12:53:21;;;;;;;4.30;3.90;;;23.80;62.80;;;;;;5149291;27;20174;-83
2021/10/15 12:55:58;;;;;;;13.23;12.10;;;23.90;61.20;;;;;;5144885;27;20535;-84
2021/10/15 12:58:29;;;;;;;1.60;1.50;;;23.60;61.70;;;;;;5145533;27;20173;-83
2021/10/15 13:00:59;;;;;;;2.60;1.60;;;23.70;61.40;;;;;;5146528;27;20197;-83
2021/10/15 13:03:26;;;;;;;2.00;1.30;;;23.70;59.50;;;;;;5144793;27;20177;-84
2021/10/15 13:05:57;;;;;;;1.10;1.00;;;22.90;59.00;;;;;;5145044;27;20184;-83
2021/10/15 13:08:24;;;;;;;1.67;1.30;;;22.80;60.40;;;;;;5144947;27;20261;-84
2021/10/15 13:10:50;;;;;;;5.07;3.37;;;22.00;60.20;;;;;;5145735;27;20187;-83
2021/10/15 13:13:17;;;;;;;2.10;1.90;;;21.10;62.50;;;;;;5147442;27;20194;-83
2021/10/15 13:15:43;;;;;;;2.10;1.53;;;20.20;67.00;;;;;;5145201;27;20175;-83
2021/10/15 13:18:09;;;;;;;2.50;1.20;;;21.20;67.90;;;;;;5144702;27;20181;-83
2021/10/15 13:20:35;;;;;;;2.03;1.43;;;22.10;67.50;;;;;;5144513;27;20201;-83
2021/10/15 13:23:01;;;;;;;1.30;1.20;;;23.20;59.40;;;;;;5144575;27;20191;-83
2021/10/15 13:25:28;;;;;;;1.40;1.10;;;23.70;60.00;;;;;;5144457;27;20187;-83
2021/10/15 13:27:54;;;;;;;1.90;1.70;;;24.10;61.00;;;;;;5145943;27;20244;-83
2021/10/15 13:30:21;;;;;;;1.77;1.10;;;25.00;57.40;;;;;;5146165;27;20220;-83
2021/10/15 13:32:47;;;;;;;1.10;1.00;;;25.80;57.70;;;;;;5146540;27;20254;-83
2021/10/15 13:35:13;;;;;;;1.93;1.20;;;25.30;58.40;;;;;;5147015;27;20172;-82
2021/10/15 13:38:03;;;;;;;1.40;1.10;;;25.10;55.80;;;;;;5145184;27;20179;-83
2021/10/15 13:40:32;;;;;;;2.30;1.00;;;25.20;55.40;;;;;;5144192;27;20208;-84
2021/10/15 13:43:08;;;;;;;1.30;1.13;;;25.30;56.50;;;;;;5143802;27;20180;-83
2021/10/15 13:50:40;;;;;;;2.10;1.13;;;23.10;57.40;;;;;;5145048;27;20192;-84